Time;durP1;ratioP1;P1;durP2;ratioP2;P2;SDS_P1;SDS_P2;PMS_P1;PMS_P2;Temp;Humidity;BMP_temperature;BMP_pressure;BME280_temperature;BME280_humidity;BME280_pressure;Samples;Min_cycle;Max_cycle;Signal;HPM_P1;HPM_P2
2021/06/01 00:01:54;;;;;;;3.63;2.53;;;;;;;14.42;55.22;100850.72;5081655;28;20488;-78
2021/06/01 00:04:20;;;;;;;3.23;2.90;;;;;;;14.22;55.22;100844.59;5082945;28;20885;-79
2021/06/01 00:06:47;;;;;;;3.10;2.80;;;;;;;14.06;56.10;100847.91;5082547;28;20546;-78
2021/06/01 00:09:17;;;;;;;3.73;2.93;;;;;;;14.11;56.25;100853.69;5099391;28;20475;-78
2021/06/01 00:11:43;;;;;;;4.07;2.40;;;;;;;14.07;56.10;100850.47;5081024;28;21008;-77
2021/06/01 00:14:10;;;;;;;3.80;3.00;;;;;;;14.01;55.92;100847.50;5083296;28;20448;-79
2021/06/01 00:16:38;;;;;;;4.47;3.10;;;;;;;14.19;55.38;100844.91;5081733;28;20483;-77
2021/06/01 00:19:06;;;;;;;3.40;2.60;;;;;;;14.12;55.57;100841.97;5082881;28;20456;-79
2021/06/01 00:21:32;;;;;;;4.67;2.43;;;;;;;14.08;55.82;100845.94;5087243;28;20597;-77
2021/06/01 00:23:58;;;;;;;7.80;3.13;;;;;;;14.08;55.50;100856.72;5081456;28;20445;-78
2021/06/01 00:26:25;;;;;;;4.20;2.63;;;;;;;14.06;55.27;100847.91;5086465;28;20558;-78
2021/06/01 00:28:51;;;;;;;3.73;2.63;;;;;;;14.07;55.03;100849.63;5094334;28;20492;-71
2021/06/01 00:31:17;;;;;;;5.77;3.90;;;;;;;14.09;55.19;100842.25;5085316;28;20474;-75
2021/06/01 00:33:45;;;;;;;4.20;2.70;;;;;;;14.08;55.18;100849.47;5095142;28;20455;-77
2021/06/01 00:36:11;;;;;;;5.07;3.10;;;;;;;14.07;55.16;100844.25;5081436;28;20506;-79
2021/06/01 00:38:37;;;;;;;6.40;3.03;;;;;;;13.99;55.03;100847.69;5085451;28;20519;-78
2021/06/01 00:41:05;;;;;;;5.10;2.83;;;;;;;13.93;54.97;100849.09;5081312;28;20621;-78
2021/06/01 00:43:31;;;;;;;5.00;3.00;;;;;;;13.85;55.61;100853.53;5077155;28;21079;-79
2021/06/01 00:45:58;;;;;;;8.20;3.30;;;;;;;13.84;55.24;100852.69;5072499;28;20500;-77
2021/06/01 00:48:24;;;;;;;4.77;3.30;;;;;;;13.82;55.82;100851.13;5082061;28;20523;-78
2021/06/01 00:50:51;;;;;;;7.23;3.47;;;;;;;13.75;55.91;100850.88;5082028;28;20502;-77
2021/06/01 00:53:18;;;;;;;5.27;3.53;;;;;;;13.74;56.20;100844.66;5101009;28;20573;-79
2021/06/01 00:55:44;;;;;;;5.03;2.50;;;;;;;13.77;56.05;100846.22;5085114;28;20463;-79
2021/06/01 00:58:10;;;;;;;3.30;2.83;;;;;;;13.71;56.55;100850.34;5093048;28;20539;-78
2021/06/01 01:01:07;;;;;;;3.30;2.93;;;;;;;13.71;56.55;100844.09;5105569;28;20503;-76
2021/06/01 01:03:34;;;;;;;3.33;2.67;;;;;;;13.45;57.18;100844.72;5117482;28;20453;-77
2021/06/01 01:06:05;;;;;;;4.03;3.20;;;;;;;13.47;56.98;100847.28;5127906;28;20488;-78
2021/06/01 01:08:45;;;;;;;4.20;2.50;;;;;;;13.50;56.49;100837.06;5119038;28;20450;-79
2021/06/01 01:11:15;;;;;;;5.73;3.37;;;;;;;13.29;57.12;100842.59;5117989;28;20458;-79
2021/06/01 01:13:44;;;;;;;5.33;2.90;;;;;;;13.46;57.08;100840.22;5129625;28;20457;-77
2021/06/01 01:16:11;;;;;;;4.20;2.53;;;;;;;13.58;56.37;100832.84;5115760;28;20559;-76
2021/06/01 01:18:37;;;;;;;5.70;2.83;;;;;;;13.48;56.62;100833.69;5109429;28;20489;-77
2021/06/01 01:21:08;;;;;;;6.03;3.10;;;;;;;13.41;56.70;100832.59;5108257;28;20498;-77
2021/06/01 01:23:36;;;;;;;7.50;3.77;;;;;;;13.42;56.58;100831.59;5113472;28;20464;-76
2021/06/01 01:26:07;;;;;;;3.87;2.90;;;;;;;13.39;56.87;100839.09;5092452;28;20513;-77
2021/06/01 01:28:38;;;;;;;7.60;3.20;;;;;;;13.35;57.06;100835.88;5109086;28;20454;-78
2021/06/01 01:31:09;;;;;;;4.30;2.80;;;;;;;13.31;56.64;100839.78;5110248;28;20908;-78
2021/06/01 01:33:40;;;;;;;3.73;2.87;;;;;;;13.22;57.18;100833.44;5088453;28;20477;-78
2021/06/01 01:36:07;;;;;;;3.70;3.17;;;;;;;13.29;56.75;100836.41;5095614;28;20899;-79
2021/06/01 01:38:35;;;;;;;5.33;3.17;;;;;;;13.20;57.31;100840.78;5118867;28;20480;-78
2021/06/01 01:41:04;;;;;;;6.07;3.13;;;;;;;13.11;57.54;100838.97;5107918;28;20532;-78
2021/06/01 01:43:32;;;;;;;7.00;3.07;;;;;;;12.89;58.22;100840.94;5129068;28;20896;-79
2021/06/01 01:46:06;;;;;;;5.70;3.47;;;;;;;12.87;58.18;100837.56;5109507;28;20680;-79
2021/06/01 01:51:19;;;;;;;4.97;3.10;;;;;;;12.86;58.42;100838.53;5102114;28;20466;-78
2021/06/01 01:53:52;;;;;;;5.30;3.63;;;;;;;12.70;58.92;100835.56;5102567;28;20493;-78
2021/06/01 01:56:19;;;;;;;5.40;3.40;;;;;;;12.79;58.92;100829.34;5107797;28;20471;-78
2021/06/01 01:58:46;;;;;;;3.80;3.40;;;;;;;12.80;58.51;100841.78;5104374;28;20514;-78
2021/06/01 02:01:12;;;;;;;3.70;2.97;;;;;;;12.71;58.61;100830.06;5101373;28;20507;-77
2021/06/01 02:03:40;;;;;;;3.87;3.10;;;;;;;12.44;59.34;100828.06;5082584;28;20475;-78
2021/06/01 02:06:07;;;;;;;3.87;3.03;;;;;;;12.08;60.36;100837.56;5086373;28;20550;-78
2021/06/01 02:08:34;;;;;;;6.33;3.27;;;;;;;12.32;59.88;100834.53;5087610;28;20538;-79
2021/06/01 02:11:01;;;;;;;5.93;4.10;;;;;;;12.55;59.06;100837.81;5103044;28;20481;-78
2021/06/01 02:13:28;;;;;;;4.60;3.07;;;;;;;12.56;58.97;100840.34;5105418;28;20454;-79
2021/06/01 02:15:54;;;;;;;4.87;3.40;;;;;;;12.50;59.19;100840.06;5093247;28;20521;-78
2021/06/01 02:18:21;;;;;;;5.83;3.60;;;;;;;12.48;59.30;100829.50;5105123;28;20908;-78
2021/06/01 02:20:50;;;;;;;5.20;3.70;;;;;;;12.52;59.35;100830.06;5103390;28;20499;-79
2021/06/01 02:26:09;;;;;;;5.37;3.53;;;;;;;12.18;60.24;100844.63;5088884;28;20471;-78
2021/06/01 02:28:42;;;;;;;5.70;4.20;;;;;;;12.23;60.11;100842.41;5085021;28;20504;-78
2021/06/01 02:31:13;;;;;;;4.30;3.10;;;;;;;12.24;59.80;100838.75;5097859;28;20503;-78
2021/06/01 02:33:43;;;;;;;6.33;3.90;;;;;;;12.34;59.60;100838.78;5084412;28;20494;-74
2021/06/01 02:36:10;;;;;;;4.47;3.10;;;;;;;12.35;59.60;100835.09;5084549;28;20562;-77
2021/06/01 02:38:37;;;;;;;6.47;4.20;;;;;;;12.33;59.84;100845.13;5085883;28;20707;-79
2021/06/01 02:41:05;;;;;;;4.90;3.10;;;;;;;12.30;59.89;100837.34;5104279;28;20471;-79
2021/06/01 02:43:31;;;;;;;4.70;3.50;;;;;;;12.33;59.68;100825.50;5097740;28;20892;-79
2021/06/01 02:45:57;;;;;;;3.73;2.93;;;;;;;12.34;59.59;100827.19;5101879;28;20490;-79
2021/06/01 02:48:24;;;;;;;11.70;4.10;;;;;;;12.16;59.97;100832.38;5105058;28;20451;-78
2021/06/01 02:50:54;;;;;;;4.47;3.43;;;;;;;12.20;59.81;100825.75;5101006;28;20490;-78
2021/06/01 02:53:21;;;;;;;6.60;3.80;;;;;;;11.98;60.30;100824.97;5096084;28;20497;-79
2021/06/01 02:55:47;;;;;;;4.73;3.33;;;;;;;11.99;60.20;100823.97;5083989;28;20496;-78
2021/06/01 02:58:15;;;;;;;5.77;3.50;;;;;;;11.94;60.29;100826.22;5079194;28;20511;-77
2021/06/01 03:00:43;;;;;;;5.03;3.33;;;;;;;11.77;61.07;100825.00;5094770;28;20550;-77
2021/06/01 03:03:10;;;;;;;8.23;4.20;;;;;;;12.00;60.53;100820.31;5084176;28;20483;-79
2021/06/01 03:05:36;;;;;;;6.30;3.70;;;;;;;11.93;60.78;100816.50;5082812;28;20484;-79
2021/06/01 03:08:12;;;;;;;9.57;3.77;;;;;;;12.08;60.30;100816.94;5089661;28;20463;-79
2021/06/01 03:10:38;;;;;;;7.40;3.60;;;;;;;12.11;59.91;100818.53;5103945;28;20525;-79
2021/06/01 03:13:04;;;;;;;7.20;3.93;;;;;;;12.03;60.04;100813.84;5100141;28;20483;-79
2021/06/01 03:15:32;;;;;;;5.97;4.53;;;;;;;11.97;60.84;100817.06;5079670;28;20501;-78
2021/06/01 03:17:58;;;;;;;7.90;4.07;;;;;;;12.09;60.40;100815.16;5084400;28;21016;-79
2021/06/01 03:20:24;;;;;;;4.47;3.47;;;;;;;12.07;60.61;100811.75;5103726;28;20490;-77
2021/06/01 03:22:50;;;;;;;4.47;3.80;;;;;;;12.09;60.09;100805.25;5098539;28;20475;-78
2021/06/01 03:25:17;;;;;;;6.37;3.73;;;;;;;12.03;59.99;100801.31;5089388;28;20463;-75
2021/06/01 03:27:43;;;;;;;9.17;4.00;;;;;;;11.64;60.96;100806.47;5093886;28;20436;-77
2021/06/01 03:30:11;;;;;;;4.90;3.53;;;;;;;11.57;60.96;100804.47;5085304;28;20528;-78
2021/06/01 03:32:39;;;;;;;5.20;2.93;;;;;;;11.80;60.31;100805.13;5102362;28;20554;-77
2021/06/01 03:35:06;;;;;;;4.00;3.37;;;;;;;12.54;58.22;100807.47;5101244;28;20463;-77
2021/06/01 03:37:33;;;;;;;5.10;3.43;;;;;;;13.90;54.52;100798.31;5096283;28;20447;-78
2021/06/01 03:39:59;;;;;;;4.93;3.43;;;;;;;14.79;51.12;100806.69;5090422;28;20452;-78
2021/06/01 03:42:25;;;;;;;3.70;3.10;;;;;;;14.61;50.98;100798.63;5082933;28;20475;-77
2021/06/01 03:44:51;;;;;;;5.57;3.40;;;;;;;13.97;52.84;100808.50;5099301;28;20489;-76
2021/06/01 03:47:17;;;;;;;6.83;3.37;;;;;;;14.56;51.24;100806.28;5103613;28;20479;-76
2021/06/01 03:49:45;;;;;;;7.83;3.30;;;;;;;15.87;48.00;100812.72;5083476;28;20510;-79
2021/06/01 03:52:11;;;;;;;5.30;3.43;;;;;;;16.74;45.22;100805.19;5091552;28;20509;-77
2021/06/01 03:54:38;;;;;;;7.90;3.27;;;;;;;17.20;44.58;100818.22;5097159;28;20494;-76
2021/06/01 03:57:05;;;;;;;3.70;3.20;;;;;;;18.41;41.62;100806.34;5114814;28;20578;-78
2021/06/01 03:59:31;;;;;;;3.53;2.90;;;;;;;19.41;38.80;100803.72;5116774;28;20465;-78
2021/06/01 04:01:58;;;;;;;3.90;2.70;;;;;;;20.30;37.61;100801.84;5102008;28;20901;-79
2021/06/01 04:04:24;;;;;;;4.67;2.90;;;;;;;20.65;36.27;100796.59;5113601;28;20482;-77
2021/06/01 04:06:51;;;;;;;3.50;2.57;;;;;;;21.31;35.50;100800.09;5123559;28;20494;-79
2021/06/01 04:09:17;;;;;;;5.60;3.27;;;;;;;22.18;33.31;100799.56;5102394;28;20533;-79
2021/06/01 04:11:43;;;;;;;2.77;2.37;;;;;;;22.72;32.52;100795.16;5106853;28;20474;-79
2021/06/01 04:14:09;;;;;;;3.23;2.40;;;;;;;22.73;32.61;100799.53;5107543;28;20494;-79
2021/06/01 04:16:36;;;;;;;6.47;2.87;;;;;;;23.24;31.10;100795.38;5105602;28;20510;-79
2021/06/01 04:19:02;;;;;;;3.20;2.40;;;;;;;23.55;31.13;100796.63;5099975;28;20807;-79
2021/06/01 04:21:28;;;;;;;3.80;2.60;;;;;;;24.46;30.19;100802.19;5102525;28;20546;-80
2021/06/01 04:23:56;;;;;;;4.73;2.40;;;;;;;25.07;29.07;100804.31;5108852;28;20459;-79
2021/06/01 04:26:22;;;;;;;3.57;3.20;;;;;;;24.54;29.38;100802.78;5103731;28;20526;-78
2021/06/01 04:28:49;;;;;;;4.63;2.33;;;;;;;23.79;30.67;100803.28;5102761;28;20945;-76
2021/06/01 04:31:15;;;;;;;5.83;2.87;;;;;;;22.89;32.28;100803.75;5109042;28;20498;-78
2021/06/01 04:33:41;;;;;;;5.23;2.73;;;;;;;23.36;32.13;100808.41;5100365;28;20538;-78
2021/06/01 04:36:07;;;;;;;3.80;2.90;;;;;;;24.14;30.70;100805.69;5119754;28;20488;-76
2021/06/01 04:38:33;;;;;;;3.43;3.00;;;;;;;24.61;30.11;100806.31;5109726;28;20509;-77
2021/06/01 04:41:01;;;;;;;3.70;2.20;;;;;;;24.60;30.15;100806.56;5119499;28;20508;-77
2021/06/01 04:43:27;;;;;;;4.00;2.50;;;;;;;24.94;29.31;100809.88;5107721;28;20534;-79
2021/06/01 04:45:53;;;;;;;3.43;2.80;;;;;;;24.71;29.59;100808.59;5102652;28;20478;-79
2021/06/01 04:48:19;;;;;;;3.93;2.60;;;;;;;24.65;30.30;100804.00;5102823;28;20488;-79
2021/06/01 04:50:45;;;;;;;3.67;3.13;;;;;;;25.51;28.73;100807.13;5101492;28;20534;-78
2021/06/01 04:53:11;;;;;;;3.70;2.80;;;;;;;25.15;29.37;100795.84;5089739;28;20519;-78
2021/06/01 04:55:37;;;;;;;3.00;2.50;;;;;;;25.16;29.69;100804.88;5076926;28;20467;-78
2021/06/01 04:58:05;;;;;;;3.03;2.73;;;;;;;25.96;28.90;100809.59;5092109;28;20880;-78
2021/06/01 05:00:31;;;;;;;3.30;2.47;;;;;;;27.10;26.97;100811.59;5093792;28;20543;-77
2021/06/01 05:02:57;;;;;;;4.20;2.70;;;;;;;27.27;26.72;100805.41;5096985;28;20467;-79
2021/06/01 05:05:23;;;;;;;3.77;2.90;;;;;;;28.54;24.94;100806.53;5098966;28;20559;-79
2021/06/01 05:07:49;;;;;;;4.10;2.90;;;;;;;29.16;24.22;100794.69;5079414;28;20433;-79
2021/06/01 05:10:15;;;;;;;3.07;2.57;;;;;;;30.01;23.13;100808.31;5079619;28;20486;-78
2021/06/01 05:12:42;;;;;;;3.43;2.43;;;;;;;30.10;22.29;100816.97;5089923;28;20486;-78
2021/06/01 05:15:11;;;;;;;3.80;3.33;;;;;;;30.59;21.91;100812.31;5081620;28;20460;-76
2021/06/01 05:17:37;;;;;;;3.60;2.53;;;;;;;30.43;21.91;100821.50;5102191;28;20463;-78
2021/06/01 05:20:04;;;;;;;5.20;2.90;;;;;;;31.64;20.31;100816.50;5088816;28;20479;-77
2021/06/01 05:22:30;;;;;;;4.33;2.80;;;;;;;31.46;20.83;100814.97;5081465;28;20468;-78
2021/06/01 05:24:56;;;;;;;3.60;2.33;;;;;;;32.16;20.17;100817.59;5078679;28;20494;-78
2021/06/01 05:27:23;;;;;;;4.33;3.73;;;;;;;31.99;20.40;100805.88;5080711;28;20549;-78
2021/06/01 05:29:52;;;;;;;4.57;2.47;;;;;;;32.57;19.93;100814.06;5083408;28;20570;-77
2021/06/01 05:35:04;;;;;;;6.97;2.70;;;;;;;32.18;18.69;100815.38;5038939;28;20546;-78
2021/06/01 05:37:36;;;;;;;3.17;2.87;;;;;;;31.77;19.88;100812.44;5087003;28;20485;-77
2021/06/01 05:40:03;;;;;;;3.43;2.47;;;;;;;32.27;18.90;100805.47;5076742;28;20532;-78
2021/06/01 05:42:29;;;;;;;3.97;3.00;;;;;;;28.58;22.53;100807.72;5102420;28;21251;-78
2021/06/01 05:44:56;;;;;;;3.27;2.90;;;;;;;28.74;22.41;100804.16;5096309;28;20512;-77
2021/06/01 05:47:23;;;;;;;3.33;3.00;;;;;;;30.28;20.92;100810.28;5094235;28;20571;-78
2021/06/01 05:49:49;;;;;;;4.90;2.70;;;;;;;30.36;20.32;100816.22;5105518;28;21270;-78
2021/06/01 05:52:15;;;;;;;10.20;3.20;;;;;;;27.28;24.10;100813.44;5082623;28;20593;-77
2021/06/01 05:54:41;;;;;;;3.17;2.80;;;;;;;29.54;22.29;100812.34;5100193;28;21039;-77
2021/06/01 05:57:08;;;;;;;6.80;3.80;;;;;;;30.89;20.82;100810.91;5091707;28;20483;-76
2021/06/01 05:59:35;;;;;;;3.73;3.37;;;;;;;30.78;21.07;100807.25;5082922;28;20444;-78
2021/06/01 06:02:01;;;;;;;4.00;3.10;;;;;;;31.21;20.17;100812.84;5088885;28;20480;-78
2021/06/01 06:04:28;;;;;;;3.90;3.50;;;;;;;31.41;20.15;100814.94;5104469;28;20985;-78
2021/06/01 06:06:54;;;;;;;5.73;2.90;;;;;;;30.19;21.55;100815.41;5103513;28;20502;-77
2021/06/01 06:09:21;;;;;;;5.00;3.17;;;;;;;31.41;19.57;100814.94;5099486;28;20467;-77
2021/06/01 06:11:47;;;;;;;3.63;3.33;;;;;;;30.92;20.20;100815.09;5103977;28;20557;-76
2021/06/01 06:14:13;;;;;;;3.10;2.70;;;;;;;32.11;18.51;100819.50;5099132;28;20447;-77
2021/06/01 06:16:42;;;;;;;3.30;3.00;;;;;;;31.27;19.19;100813.75;5101898;28;20502;-77
2021/06/01 06:19:08;;;;;;;5.10;3.03;;;;;;;31.43;19.39;100817.44;5103086;28;20477;-77
2021/06/01 06:21:36;;;;;;;4.33;3.10;;;;;;;31.75;19.46;100817.38;5093513;28;20557;-77
2021/06/01 06:24:02;;;;;;;5.10;2.80;;;;;;;31.05;20.32;100822.94;5113363;28;20845;-78
2021/06/01 06:26:28;;;;;;;3.50;2.70;;;;;;;32.92;18.49;100810.56;5124868;28;20493;-76
2021/06/01 06:28:54;;;;;;;3.30;3.00;;;;;;;33.27;18.35;100811.66;5124127;28;20485;-76
2021/06/01 06:31:21;;;;;;;6.27;3.13;;;;;;;32.94;18.23;100816.66;5124191;28;20478;-77
2021/06/01 06:33:47;;;;;;;4.50;2.97;;;;;;;30.86;20.41;100814.19;5084694;28;20460;-78
2021/06/01 06:36:13;;;;;;;3.17;2.83;;;;;;;31.20;20.07;100816.72;5082799;28;20538;-77
2021/06/01 06:38:41;;;;;;;5.47;2.67;;;;;;;30.74;20.68;100819.88;5093572;28;20470;-77
2021/06/01 06:41:12;;;;;;;3.70;2.40;;;;;;;31.59;20.50;100813.69;5103745;28;20496;-77
2021/06/01 06:43:39;;;;;;;5.20;3.10;;;;;;;32.22;19.62;100822.03;5102940;28;20490;-76
2021/06/01 06:46:11;;;;;;;3.83;2.07;;;;;;;32.59;18.59;100817.44;5103765;28;20528;-76
2021/06/01 06:48:38;;;;;;;5.17;2.53;;;;;;;32.97;18.42;100809.75;5104097;28;20459;-77
2021/06/01 06:51:12;;;;;;;3.60;2.60;;;;;;;31.51;20.62;100808.69;5102662;28;20494;-78
2021/06/01 06:53:40;;;;;;;2.90;2.10;;;;;;;31.32;19.39;100813.78;5082724;28;20625;-78
2021/06/01 06:56:08;;;;;;;4.90;3.03;;;;;;;31.70;19.31;100806.28;5082351;28;20525;-78
2021/06/01 06:58:34;;;;;;;2.03;1.83;;;;;;;32.07;19.36;100808.16;5072325;28;20456;-78
2021/06/01 07:01:00;;;;;;;3.77;2.97;;;;;;;32.80;18.72;100810.81;5082424;28;20490;-78
2021/06/01 07:03:26;;;;;;;3.33;2.20;;;;;;;33.32;18.35;100811.66;5081272;28;20459;-77
2021/06/01 07:05:53;;;;;;;2.73;2.10;;;;;;;33.60;17.40;100801.06;5079733;28;20472;-77
2021/06/01 07:08:19;;;;;;;4.00;2.90;;;;;;;31.77;19.60;100801.38;5078514;28;20463;-75
2021/06/01 07:10:45;;;;;;;3.20;2.20;;;;;;;32.51;19.13;100796.63;5098514;28;20482;-73
2021/06/01 07:13:16;;;;;;;6.60;2.40;;;;;;;32.61;19.17;100802.22;5101736;28;20446;-71
2021/06/01 07:15:47;;;;;;;3.00;2.53;;;;;;;32.42;19.54;100795.53;5088248;28;20464;-72
2021/06/01 07:18:14;;;;;;;3.10;2.30;;;;;;;32.69;19.29;100800.00;5081948;28;21220;-71
2021/06/01 07:20:40;;;;;;;3.33;2.60;;;;;;;32.19;19.27;100794.09;5069914;28;20541;-72
2021/06/01 07:23:06;;;;;;;3.93;2.37;;;;;;;32.13;19.11;100798.75;5082776;28;20497;-71
2021/06/01 07:25:33;;;;;;;4.50;2.63;;;;;;;31.66;20.00;100789.41;5057021;28;20885;-68
2021/06/01 07:28:01;;;;;;;3.17;2.40;;;;;;;32.14;19.80;100797.66;5082350;28;20448;-72
2021/06/01 07:30:29;;;;;;;2.23;2.03;;;;;;;32.15;20.04;100796.56;5081806;28;20507;-72
2021/06/01 07:32:55;;;;;;;3.57;1.90;;;;;;;33.58;17.08;100795.00;5072685;28;20448;-66
2021/06/01 07:35:21;;;;;;;3.33;2.00;;;;;;;30.49;19.77;100792.06;5061361;28;20469;-66
2021/06/01 07:37:48;;;;;;;2.43;1.90;;;;;;;31.33;19.37;100779.50;5065196;28;20437;-69
2021/06/01 07:40:14;;;;;;;3.93;2.43;;;;;;;32.19;18.42;100786.63;5090353;28;20504;-70
2021/06/01 07:42:40;;;;;;;2.57;2.10;;;;;;;32.62;18.65;100791.97;5081299;28;20487;-76
2021/06/01 07:45:08;;;;;;;2.87;2.23;;;;;;;31.90;18.84;100791.72;5069779;28;20463;-77
2021/06/01 07:47:35;;;;;;;3.17;2.20;;;;;;;31.89;18.74;100788.16;5079748;28;20444;-78
2021/06/01 07:50:02;;;;;;;3.90;2.70;;;;;;;31.40;19.34;100784.81;5081341;28;20502;-75
2021/06/01 07:52:28;;;;;;;3.70;2.20;;;;;;;30.15;20.40;100781.16;5080187;28;20480;-79
2021/06/01 07:54:56;;;;;;;3.80;1.90;;;;;;;31.31;19.56;100787.25;5080865;28;20461;-75
2021/06/01 07:57:22;;;;;;;3.20;2.10;;;;;;;31.77;19.13;100784.78;5077357;28;20472;-70
2021/06/01 07:59:48;;;;;;;4.50;2.27;;;;;;;30.79;19.57;100786.81;5081891;28;20460;-72
2021/06/01 08:02:14;;;;;;;5.97;2.57;;;;;;;31.19;19.81;100781.91;5073055;28;20483;-74
2021/06/01 08:04:42;;;;;;;3.20;2.30;;;;;;;30.37;20.86;100786.69;5077611;28;20474;-76
2021/06/01 08:07:09;;;;;;;5.43;1.97;;;;;;;31.01;20.14;100776.81;5081134;28;20482;-73
2021/06/01 08:09:35;;;;;;;2.83;1.60;;;;;;;32.88;18.46;100776.22;5076575;28;20507;-70
2021/06/01 08:12:02;;;;;;;3.13;2.23;;;;;;;32.26;18.39;100775.28;5074309;28;20484;-74
2021/06/01 08:14:29;;;;;;;3.00;1.93;;;;;;;32.02;18.05;100772.16;5081918;28;20451;-71
2021/06/01 08:16:55;;;;;;;2.87;2.10;;;;;;;32.97;17.23;100774.56;5063385;28;20477;-71
2021/06/01 08:19:24;;;;;;;2.93;2.20;;;;;;;34.63;15.50;100779.22;5081741;28;20512;-75
2021/06/01 08:21:56;;;;;;;4.17;2.40;;;;;;;32.69;16.69;100764.88;5072571;28;20992;-71
2021/06/01 08:24:22;;;;;;;3.67;2.13;;;;;;;32.04;18.59;100764.41;5073170;28;20913;-73
2021/06/01 08:26:49;;;;;;;2.73;2.33;;;;;;;33.25;16.95;100760.44;5078627;28;20503;-70
2021/06/01 08:29:15;;;;;;;5.10;2.23;;;;;;;31.74;19.01;100756.84;5075629;28;20501;-72
2021/06/01 08:31:42;;;;;;;2.90;2.20;;;;;;;32.34;18.04;100757.31;5081132;28;20479;-72
2021/06/01 08:34:09;;;;;;;3.73;2.37;;;;;;;32.37;17.49;100756.78;5073437;28;20476;-71
2021/06/01 08:36:36;;;;;;;2.33;2.00;;;;;;;33.22;17.13;100746.00;5076562;28;20467;-72
2021/06/01 08:39:05;;;;;;;6.53;1.97;;;;;;;34.54;16.40;100746.81;5077109;28;20443;-73
2021/06/01 08:41:31;;;;;;;4.23;1.73;;;;;;;31.77;18.06;100736.94;5078144;28;20502;-73
2021/06/01 08:44:00;;;;;;;2.70;2.07;;;;;;;33.88;16.12;100737.75;5080517;28;20455;-73
2021/06/01 08:46:27;;;;;;;3.13;2.07;;;;;;;32.88;17.18;100734.69;5078710;28;20468;-69
2021/06/01 08:48:54;;;;;;;4.77;2.00;;;;;;;31.03;18.80;100733.19;5081307;28;20459;-73
2021/06/01 08:51:21;;;;;;;2.43;2.10;;;;;;;30.17;18.60;100743.97;5076829;28;20512;-74
2021/06/01 08:53:47;;;;;;;3.00;2.30;;;;;;;30.52;18.83;100742.69;5081828;28;20483;-74
2021/06/01 08:56:15;;;;;;;3.17;2.40;;;;;;;30.50;18.49;100741.28;5095530;28;20470;-75
2021/06/01 08:58:42;;;;;;;4.87;2.30;;;;;;;31.74;18.12;100740.25;5078876;28;20958;-76
2021/06/01 09:01:08;;;;;;;3.00;2.17;;;;;;;31.81;18.18;100729.78;5089614;28;20768;-72
2021/06/01 09:03:36;;;;;;;3.17;1.90;;;;;;;31.66;17.77;100725.00;5095562;28;20447;-71
2021/06/01 09:06:13;;;;;;;5.23;2.30;;;;;;;31.69;18.17;100732.75;5095340;28;20472;-71
2021/06/01 09:08:46;;;;;;;2.90;2.43;;;;;;;31.47;17.47;100730.97;5107286;28;20472;-70
2021/06/01 09:11:17;;;;;;;4.87;2.10;;;;;;;29.26;20.70;100734.25;5111588;28;20570;-74
2021/06/01 09:14:12;;;;;;;2.93;1.90;;;;;;;30.52;18.18;100726.16;5100142;28;20537;-73
2021/06/01 09:22:07;;;;;;;4.60;2.03;;;;;;;31.52;16.96;100730.19;5102539;28;20556;-70
2021/06/01 09:24:33;;;;;;;3.67;1.70;;;;;;;30.14;17.81;100729.88;5100767;28;20470;-71
2021/06/01 09:27:02;;;;;;;3.60;1.70;;;;;;;31.15;17.16;100725.53;5104546;28;20976;-76
2021/06/01 09:29:31;;;;;;;4.63;1.97;;;;;;;31.22;16.53;100725.31;5104909;28;20431;-68
2021/06/01 09:32:09;;;;;;;2.60;2.40;;;;;;;30.40;17.15;100714.44;5088255;28;20478;-77
2021/06/01 09:34:40;;;;;;;2.83;2.20;;;;;;;31.12;17.47;100717.78;5078466;28;20444;-77
2021/06/01 09:37:20;;;;;;;2.07;1.87;;;;;;;31.70;15.30;100712.28;5098283;28;20487;-77
2021/06/01 09:40:02;;;;;;;3.53;1.90;;;;;;;31.41;16.14;100704.41;5100489;28;20517;-76
2021/06/01 09:42:29;;;;;;;1.77;1.50;;;;;;;31.17;14.94;100695.72;5095881;28;20658;-74
2021/06/01 09:45:06;;;;;;;1.93;1.63;;;;;;;30.59;15.58;100709.38;5101548;28;20494;-76
2021/06/01 09:47:57;;;;;;;3.60;1.80;;;;;;;30.68;15.74;100702.25;5093206;28;20461;-76
2021/06/01 09:50:35;;;;;;;3.00;2.00;;;;;;;29.83;15.84;100710.22;5084720;28;20579;-75
2021/06/01 09:53:05;;;;;;;2.93;1.70;;;;;;;30.66;16.72;100700.84;5101688;28;20478;-74
2021/06/01 09:55:35;;;;;;;2.27;2.07;;;;;;;30.25;17.52;100711.50;5097005;28;20487;-74
2021/06/01 09:58:03;;;;;;;2.10;1.83;;;;;;;30.33;17.06;100703.59;5083953;28;20433;-75
2021/06/01 10:00:32;;;;;;;2.33;2.10;;;;;;;29.43;16.27;100705.84;5095404;28;20458;-76
2021/06/01 10:03:01;;;;;;;2.60;2.00;;;;;;;29.16;16.72;100703.00;5097691;28;20481;-75
2021/06/01 10:05:29;;;;;;;3.93;1.63;;;;;;;30.11;16.67;100694.56;5102967;28;20498;-75
2021/06/01 10:07:57;;;;;;;2.90;2.10;;;;;;;28.05;18.09;100693.41;5104455;28;20443;-72
2021/06/01 10:10:25;;;;;;;3.00;1.50;;;;;;;30.97;16.14;100696.41;5103687;28;20586;-72
2021/06/01 10:12:53;;;;;;;5.83;2.03;;;;;;;29.82;17.20;100703.88;5087847;28;20444;-73
2021/06/01 10:15:22;;;;;;;2.73;2.00;;;;;;;29.74;17.05;100692.44;5083408;28;20475;-72
2021/06/01 10:17:50;;;;;;;4.40;1.70;;;;;;;30.60;17.74;100683.44;5108036;28;20503;-74
2021/06/01 10:20:17;;;;;;;2.50;1.80;;;;;;;30.41;17.89;100680.22;5112012;28;20555;-72
2021/06/01 10:22:44;;;;;;;1.90;1.70;;;;;;;30.72;17.51;100678.53;5101926;28;20514;-73
2021/06/01 10:25:11;;;;;;;2.13;1.87;;;;;;;31.21;17.57;100676.69;5095288;28;20451;-72
2021/06/01 10:27:37;;;;;;;4.20;2.03;;;;;;;30.09;18.29;100672.75;5094859;28;20481;-72
2021/06/01 10:30:06;;;;;;;2.27;2.00;;;;;;;30.01;17.84;100670.44;5103658;28;20507;-69
2021/06/01 10:32:35;;;;;;;1.97;1.73;;;;;;;29.17;19.15;100663.38;5089128;28;20466;-70
2021/06/01 10:35:05;;;;;;;2.60;1.80;;;;;;;28.71;19.22;100666.22;5103236;28;20569;-74
2021/06/01 10:43:28;;;;;;;2.50;1.77;;;;;;;29.87;18.18;100671.97;5123494;28;20509;-73
2021/06/01 10:48:59;;;;;;;2.03;1.70;;;;;;;28.53;18.50;100662.63;5097707;28;20467;-71
2021/06/01 10:51:31;;;;;;;3.47;2.03;;;;;;;29.29;18.67;100667.66;5090001;28;20507;-71
2021/06/01 10:53:57;;;;;;;2.97;2.13;;;;;;;30.03;18.30;100660.84;5097368;28;20514;-71
2021/06/01 10:56:23;;;;;;;2.80;2.10;;;;;;;30.16;17.69;100659.56;5103069;28;20506;-71
2021/06/01 10:59:05;;;;;;;3.83;2.00;;;;;;;29.74;18.13;100662.13;5102738;28;20983;-69
2021/06/01 11:04:19;;;;;;;3.00;2.07;;;;;;;28.53;20.10;100665.38;5103279;28;20466;-70
2021/06/01 11:07:37;;;;;;;3.40;2.13;;;;;;;29.21;19.18;100664.53;5102224;28;20470;-70
2021/06/01 11:10:04;;;;;;;2.43;1.63;;;;;;;29.43;19.14;100654.34;5082838;28;20487;-68
2021/06/01 11:12:56;;;;;;;3.47;1.73;;;;;;;29.34;18.34;100652.28;5091197;28;20451;-69
2021/06/01 11:15:38;;;;;;;2.63;1.60;;;;;;;30.25;19.45;100645.31;5082442;28;20949;-70
2021/06/01 11:18:27;;;;;;;3.40;2.00;;;;;;;31.52;18.39;100642.56;5103240;28;20441;-70
2021/06/01 11:21:15;;;;;;;4.27;1.70;;;;;;;29.59;18.94;100644.34;5098328;28;20554;-69
2021/06/01 11:33:15;;;;;;;4.53;2.20;;;;;;;27.44;21.81;100622.41;5096583;28;20461;-68
2021/06/01 11:35:43;;;;;;;4.40;2.20;;;;;;;27.68;21.62;100623.16;5099627;28;20478;-68
2021/06/01 11:38:16;;;;;;;3.00;2.50;;;;;;;28.60;20.73;100626.72;5099819;28;20963;-68
2021/06/01 11:43:34;;;;;;;2.10;1.90;;;;;;;27.75;20.87;100617.53;5085078;28;20470;-69
2021/06/01 11:46:08;;;;;;;2.40;1.70;;;;;;;28.34;20.81;100628.22;5097195;28;20557;-77
2021/06/01 11:51:29;;;;;;;1.70;1.60;;;;;;;29.17;20.13;100616.56;5100959;28;20500;-72
2021/06/01 11:53:56;;;;;;;3.90;1.87;;;;;;;29.14;20.41;100612.34;5101539;28;21071;-72
2021/06/01 11:56:38;;;;;;;2.33;1.83;;;;;;;29.22;21.42;100622.97;5101533;28;20895;-72
2021/06/01 12:02:03;;;;;;;2.50;1.63;;;;;;;28.12;21.04;100603.34;5101724;28;20549;-72
2021/06/01 12:04:54;;;;;;;2.03;1.80;;;;;;;26.84;21.83;100607.13;5101286;28;20447;-75
2021/06/01 12:13:09;;;;;;;3.57;2.00;;;;;;;26.93;23.68;100589.19;5100951;28;20481;-70
2021/06/01 12:18:23;;;;;;;2.33;1.80;;;;;;;27.18;21.87;100575.16;5102363;28;20458;-74
2021/06/01 12:20:49;;;;;;;3.27;1.90;;;;;;;27.53;21.97;100584.41;5098625;28;20478;-75
2021/06/01 12:23:30;;;;;;;3.03;2.23;;;;;;;27.18;21.97;100577.09;5098615;28;20468;-64